sensor_id;sensor_type;location;lat;lon;timestamp;pressure;altitude;pressure_sealevel;temperature;humidity
24031;BME280;12240;51.142;22.486;2023-08-08T00:02:15;98691.66;;;13.42;100.00
24031;BME280;12240;51.142;22.486;2023-08-08T00:04:45;98683.19;;;13.39;100.00
24031;BME280;12240;51.142;22.486;2023-08-08T00:07:13;98692.06;;;13.39;100.00
24031;BME280;12240;51.142;22.486;2023-08-08T00:09:42;98695.91;;;13.37;100.00
24031;BME280;12240;51.142;22.486;2023-08-08T00:12:12;98696.28;;;13.34;100.00
24031;BME280;12240;51.142;22.486;2023-08-08T00:14:41;98700.34;;;13.30;100.00
24031;BME280;12240;51.142;22.486;2023-08-08T00:17:09;98703.59;;;13.25;100.00
24031;BME280;12240;51.142;22.486;2023-08-08T00:19:38;98703.13;;;13.22;100.00
24031;BME280;12240;51.142;22.486;2023-08-08T00:22:07;98710.50;;;13.20;100.00
24031;BME280;12240;51.142;22.486;2023-08-08T00:24:36;98707.34;;;13.16;100.00
24031;BME280;12240;51.142;22.486;2023-08-08T00:27:04;98711.59;;;13.11;100.00
24031;BME280;12240;51.142;22.486;2023-08-08T00:29:32;98711.97;;;13.08;100.00
24031;BME280;12240;51.142;22.486;2023-08-08T00:32:01;98718.69;;;13.04;100.00
24031;BME280;12240;51.142;22.486;2023-08-08T00:34:29;98711.84;;;13.01;100.00
24031;BME280;12240;51.142;22.486;2023-08-08T00:36:58;98717.75;;;12.97;100.00
24031;BME280;12240;51.142;22.486;2023-08-08T00:39:26;98723.72;;;12.99;100.00
24031;BME280;12240;51.142;22.486;2023-08-08T00:41:55;98721.69;;;13.01;100.00
24031;BME280;12240;51.142;22.486;2023-08-08T00:44:24;98730.56;;;13.01;100.00
24031;BME280;12240;51.142;22.486;2023-08-08T00:46:53;98723.41;;;13.02;100.00
24031;BME280;12240;51.142;22.486;2023-08-08T00:49:23;98728.06;;;13.00;100.00
24031;BME280;12240;51.142;22.486;2023-08-08T00:51:52;98727.03;;;13.01;100.00
24031;BME280;12240;51.142;22.486;2023-08-08T00:54:21;98733.06;;;13.03;100.00
24031;BME280;12240;51.142;22.486;2023-08-08T00:56:50;98722.19;;;13.04;100.00
24031;BME280;12240;51.142;22.486;2023-08-08T00:59:21;98731.44;;;13.02;100.00
24031;BME280;12240;51.142;22.486;2023-08-08T01:01:50;98730.56;;;13.01;100.00
24031;BME280;12240;51.142;22.486;2023-08-08T01:04:18;98737.72;;;13.01;100.00
24031;BME280;12240;51.142;22.486;2023-08-08T01:12:45;98748.09;;;13.04;100.00
24031;BME280;12240;51.142;22.486;2023-08-08T01:15:15;98750.41;;;13.07;100.00
24031;BME280;12240;51.142;22.486;2023-08-08T01:17:46;98753.09;;;13.07;100.00
24031;BME280;12240;51.142;22.486;2023-08-08T01:20:16;98748.09;;;13.04;100.00
24031;BME280;12240;51.142;22.486;2023-08-08T01:25:39;98744.78;;;13.02;100.00
24031;BME280;12240;51.142;22.486;2023-08-08T01:28:08;98755.47;;;13.02;100.00
24031;BME280;12240;51.142;22.486;2023-08-08T01:30:37;98756.63;;;12.99;100.00
24031;BME280;12240;51.142;22.486;2023-08-08T01:33:06;98754.59;;;13.01;100.00
24031;BME280;12240;51.142;22.486;2023-08-08T01:35:38;98753.63;;;13.02;100.00
24031;BME280;12240;51.142;22.486;2023-08-08T01:40:43;98753.44;;;13.04;100.00
24031;BME280;12240;51.142;22.486;2023-08-08T01:43:15;98758.44;;;13.07;100.00
24031;BME280;12240;51.142;22.486;2023-08-08T01:45:45;98765.06;;;13.11;100.00
24031;BME280;12240;51.142;22.486;2023-08-08T01:48:13;98764.34;;;13.17;100.00
24031;BME280;12240;51.142;22.486;2023-08-08T01:50:41;98773.00;;;13.19;100.00
24031;BME280;12240;51.142;22.486;2023-08-08T01:53:10;98768.66;;;13.18;100.00
24031;BME280;12240;51.142;22.486;2023-08-08T01:55:38;98772.34;;;13.17;100.00
24031;BME280;12240;51.142;22.486;2023-08-08T01:58:07;98780.19;;;13.18;100.00
24031;BME280;12240;51.142;22.486;2023-08-08T02:00:36;98780.38;;;13.17;100.00
24031;BME280;12240;51.142;22.486;2023-08-08T02:03:04;98785.53;;;13.18;100.00
24031;BME280;12240;51.142;22.486;2023-08-08T02:05:33;98800.72;;;13.18;100.00
24031;BME280;12240;51.142;22.486;2023-08-08T02:08:02;98796.88;;;13.20;100.00
24031;BME280;12240;51.142;22.486;2023-08-08T02:10:31;98796.69;;;13.22;100.00
24031;BME280;12240;51.142;22.486;2023-08-08T02:12:59;98794.66;;;13.24;100.00
24031;BME280;12240;51.142;22.486;2023-08-08T02:15:28;98807.66;;;13.27;100.00
24031;BME280;12240;51.142;22.486;2023-08-08T02:17:59;98806.47;;;13.29;100.00
24031;BME280;12240;51.142;22.486;2023-08-08T02:20:29;98810.16;;;13.28;100.00
24031;BME280;12240;51.142;22.486;2023-08-08T02:22:58;98816.16;;;13.30;100.00
24031;BME280;12240;51.142;22.486;2023-08-08T02:25:26;98822.34;;;13.31;100.00
24031;BME280;12240;51.142;22.486;2023-08-08T02:27:55;98828.03;;;13.28;100.00
24031;BME280;12240;51.142;22.486;2023-08-08T02:30:23;98830.69;;;13.28;100.00
24031;BME280;12240;51.142;22.486;2023-08-08T02:32:52;98835.44;;;13.26;100.00
24031;BME280;12240;51.142;22.486;2023-08-08T02:35:21;98842.50;;;13.19;100.00
24031;BME280;12240;51.142;22.486;2023-08-08T02:37:50;98841.19;;;13.15;100.00
24031;BME280;12240;51.142;22.486;2023-08-08T02:40:19;98844.91;;;13.14;100.00
24031;BME280;12240;51.142;22.486;2023-08-08T02:42:48;98847.63;;;13.06;100.00
24031;BME280;12240;51.142;22.486;2023-08-08T02:45:16;98851.00;;;13.00;100.00
24031;BME280;12240;51.142;22.486;2023-08-08T02:47:45;98854.03;;;12.97;100.00
24031;BME280;12240;51.142;22.486;2023-08-08T02:50:14;98852.72;;;12.93;100.00
24031;BME280;12240;51.142;22.486;2023-08-08T02:52:44;98846.06;;;12.88;100.00
24031;BME280;12240;51.142;22.486;2023-08-08T02:55:12;98856.41;;;12.91;100.00
24031;BME280;12240;51.142;22.486;2023-08-08T02:57:43;98862.09;;;12.88;100.00
24031;BME280;12240;51.142;22.486;2023-08-08T03:00:12;98861.44;;;12.86;100.00
24031;BME280;12240;51.142;22.486;2023-08-08T03:02:45;98860.81;;;12.84;100.00
24031;BME280;12240;51.142;22.486;2023-08-08T03:05:15;98864.66;;;12.82;100.00
24031;BME280;12240;51.142;22.486;2023-08-08T03:07:44;98875.72;;;12.79;100.00
24031;BME280;12240;51.142;22.486;2023-08-08T03:10:14;98867.88;;;12.77;100.00
24031;BME280;12240;51.142;22.486;2023-08-08T03:12:44;98865.03;;;12.79;100.00
24031;BME280;12240;51.142;22.486;2023-08-08T03:15:13;98880.03;;;12.80;100.00
24031;BME280;12240;51.142;22.486;2023-08-08T03:17:43;98880.88;;;12.80;100.00
24031;BME280;12240;51.142;22.486;2023-08-08T03:20:12;98886.03;;;12.82;100.00
24031;BME280;12240;51.142;22.486;2023-08-08T03:22:41;98882.19;;;12.84;100.00
24031;BME280;12240;51.142;22.486;2023-08-08T03:25:10;98894.72;;;12.84;100.00
24031;BME280;12240;51.142;22.486;2023-08-08T03:27:39;98891.88;;;12.85;100.00
24031;BME280;12240;51.142;22.486;2023-08-08T03:30:10;98905.03;;;12.87;100.00
24031;BME280;12240;51.142;22.486;2023-08-08T03:32:42;98909.03;;;12.91;100.00
24031;BME280;12240;51.142;22.486;2023-08-08T03:35:11;98907.81;;;12.93;100.00
24031;BME280;12240;51.142;22.486;2023-08-08T03:37:42;98910.97;;;12.97;100.00
24031;BME280;12240;51.142;22.486;2023-08-08T03:40:12;98918.66;;;13.00;100.00
24031;BME280;12240;51.142;22.486;2023-08-08T03:42:43;98919.31;;;13.02;100.00
24031;BME280;12240;51.142;22.486;2023-08-08T03:45:12;98924.81;;;13.01;100.00
24031;BME280;12240;51.142;22.486;2023-08-08T03:47:40;98928.50;;;13.00;100.00
24031;BME280;12240;51.142;22.486;2023-08-08T03:50:09;98928.69;;;12.98;100.00
24031;BME280;12240;51.142;22.486;2023-08-08T03:52:38;98932.16;;;12.99;100.00
24031;BME280;12240;51.142;22.486;2023-08-08T03:55:11;98933.53;;;13.03;100.00
24031;BME280;12240;51.142;22.486;2023-08-08T03:57:41;98938.03;;;13.02;100.00
24031;BME280;12240;51.142;22.486;2023-08-08T04:00:10;98945.22;;;13.02;100.00
24031;BME280;12240;51.142;22.486;2023-08-08T04:02:39;98954.06;;;13.02;100.00
24031;BME280;12240;51.142;22.486;2023-08-08T04:05:08;98958.41;;;13.03;100.00
24031;BME280;12240;51.142;22.486;2023-08-08T04:07:37;98952.88;;;13.05;100.00
24031;BME280;12240;51.142;22.486;2023-08-08T04:10:06;98964.91;;;13.09;100.00
24031;BME280;12240;51.142;22.486;2023-08-08T04:12:34;98973.22;;;13.14;100.00
24031;BME280;12240;51.142;22.486;2023-08-08T04:15:03;98983.19;;;13.20;100.00
24031;BME280;12240;51.142;22.486;2023-08-08T04:17:32;98987.16;;;13.24;100.00
24031;BME280;12240;51.142;22.486;2023-08-08T04:20:01;98987.00;;;13.25;100.00
24031;BME280;12240;51.142;22.486;2023-08-08T04:22:29;98988.94;;;13.31;100.00
24031;BME280;12240;51.142;22.486;2023-08-08T04:24:58;98988.41;;;13.36;100.00
24031;BME280;12240;51.142;22.486;2023-08-08T04:27:26;98995.03;;;13.40;100.00
24031;BME280;12240;51.142;22.486;2023-08-08T04:29:55;98995.47;;;13.51;100.00
24031;BME280;12240;51.142;22.486;2023-08-08T04:32:23;98999.19;;;13.65;100.00
24031;BME280;12240;51.142;22.486;2023-08-08T04:34:52;98998.88;;;13.82;100.00
24031;BME280;12240;51.142;22.486;2023-08-08T04:37:20;99006.38;;;14.16;100.00
24031;BME280;12240;51.142;22.486;2023-08-08T04:39:49;99010.56;;;14.48;100.00
24031;BME280;12240;51.142;22.486;2023-08-08T04:42:17;99008.16;;;14.53;100.00
24031;BME280;12240;51.142;22.486;2023-08-08T04:44:46;99018.03;;;14.67;100.00
24031;BME280;12240;51.142;22.486;2023-08-08T04:47:14;99024.94;;;14.90;100.00
24031;BME280;12240;51.142;22.486;2023-08-08T04:49:43;99017.53;;;14.92;100.00
24031;BME280;12240;51.142;22.486;2023-08-08T04:52:11;99029.44;;;15.04;100.00
24031;BME280;12240;51.142;22.486;2023-08-08T04:54:39;99027.72;;;14.82;100.00
24031;BME280;12240;51.142;22.486;2023-08-08T04:57:08;99021.91;;;14.79;100.00
24031;BME280;12240;51.142;22.486;2023-08-08T04:59:36;99018.72;;;14.90;100.00
24031;BME280;12240;51.142;22.486;2023-08-08T05:02:05;99028.00;;;15.08;100.00
24031;BME280;12240;51.142;22.486;2023-08-08T05:04:34;99029.16;;;14.99;100.00
24031;BME280;12240;51.142;22.486;2023-08-08T05:07:02;99026.25;;;15.37;100.00
24031;BME280;12240;51.142;22.486;2023-08-08T05:09:31;99027.47;;;15.13;100.00
24031;BME280;12240;51.142;22.486;2023-08-08T05:11:59;99025.53;;;15.07;100.00
24031;BME280;12240;51.142;22.486;2023-08-08T05:14:28;99024.09;;;14.90;100.00
24031;BME280;12240;51.142;22.486;2023-08-08T05:16:56;99030.03;;;14.71;100.00
24031;BME280;12240;51.142;22.486;2023-08-08T05:19:25;99040.03;;;14.62;100.00
24031;BME280;12240;51.142;22.486;2023-08-08T05:21:53;99038.84;;;14.65;100.00
24031;BME280;12240;51.142;22.486;2023-08-08T05:24:22;99040.75;;;14.71;100.00
24031;BME280;12240;51.142;22.486;2023-08-08T05:26:50;99044.72;;;14.60;100.00
24031;BME280;12240;51.142;22.486;2023-08-08T05:29:19;99039.22;;;14.62;100.00
24031;BME280;12240;51.142;22.486;2023-08-08T05:31:48;99039.47;;;14.67;100.00
24031;BME280;12240;51.142;22.486;2023-08-08T05:34:16;99032.63;;;14.64;100.00
24031;BME280;12240;51.142;22.486;2023-08-08T05:36:44;99050.09;;;14.60;100.00
24031;BME280;12240;51.142;22.486;2023-08-08T05:39:13;99058.97;;;14.61;100.00
24031;BME280;12240;51.142;22.486;2023-08-08T05:41:41;99062.94;;;14.65;100.00
24031;BME280;12240;51.142;22.486;2023-08-08T05:44:10;99068.50;;;14.63;100.00
24031;BME280;12240;51.142;22.486;2023-08-08T05:46:38;99068.19;;;14.73;100.00
24031;BME280;12240;51.142;22.486;2023-08-08T05:49:06;99072.63;;;14.66;100.00
24031;BME280;12240;51.142;22.486;2023-08-08T05:51:35;99068.66;;;14.76;100.00
24031;BME280;12240;51.142;22.486;2023-08-08T05:54:03;99070.81;;;14.66;100.00
24031;BME280;12240;51.142;22.486;2023-08-08T05:56:36;99078.28;;;14.71;100.00
24031;BME280;12240;51.142;22.486;2023-08-08T05:59:04;99067.34;;;14.72;100.00
24031;BME280;12240;51.142;22.486;2023-08-08T06:01:33;99074.56;;;14.86;100.00
24031;BME280;12240;51.142;22.486;2023-08-08T06:04:03;99075.00;;;15.04;100.00
24031;BME280;12240;51.142;22.486;2023-08-08T06:06:31;99068.81;;;15.40;100.00
24031;BME280;12240;51.142;22.486;2023-08-08T06:09:00;99064.00;;;15.35;100.00
24031;BME280;12240;51.142;22.486;2023-08-08T06:11:28;99071.78;;;15.66;100.00
24031;BME280;12240;51.142;22.486;2023-08-08T06:13:56;99070.88;;;16.01;100.00
24031;BME280;12240;51.142;22.486;2023-08-08T06:16:25;99063.47;;;15.82;100.00
24031;BME280;12240;51.142;22.486;2023-08-08T06:18:54;99060.19;;;15.86;100.00
24031;BME280;12240;51.142;22.486;2023-08-08T06:21:22;99060.91;;;16.22;100.00
24031;BME280;12240;51.142;22.486;2023-08-08T06:23:51;99058.19;;;16.16;100.00
24031;BME280;12240;51.142;22.486;2023-08-08T06:26:23;99053.44;;;16.18;100.00
24031;BME280;12240;51.142;22.486;2023-08-08T06:28:52;99055.94;;;16.19;100.00
24031;BME280;12240;51.142;22.486;2023-08-08T06:31:22;99055.63;;;16.35;100.00
24031;BME280;12240;51.142;22.486;2023-08-08T06:33:51;99049.34;;;16.50;100.00
24031;BME280;12240;51.142;22.486;2023-08-08T06:36:19;99043.22;;;16.62;100.00
24031;BME280;12240;51.142;22.486;2023-08-08T06:38:47;99033.13;;;16.43;100.00
24031;BME280;12240;51.142;22.486;2023-08-08T06:41:16;99038.22;;;16.53;100.00
24031;BME280;12240;51.142;22.486;2023-08-08T06:43:44;99043.38;;;16.54;100.00
24031;BME280;12240;51.142;22.486;2023-08-08T06:46:13;99032.91;;;16.38;100.00
24031;BME280;12240;51.142;22.486;2023-08-08T06:48:43;99026.31;;;16.41;100.00
24031;BME280;12240;51.142;22.486;2023-08-08T06:51:15;99035.09;;;16.49;100.00
24031;BME280;12240;51.142;22.486;2023-08-08T06:53:43;99034.16;;;16.70;100.00
24031;BME280;12240;51.142;22.486;2023-08-08T06:56:12;99038.81;;;16.89;100.00
24031;BME280;12240;51.142;22.486;2023-08-08T06:58:40;99022.78;;;16.68;100.00
24031;BME280;12240;51.142;22.486;2023-08-08T07:01:09;99015.66;;;16.54;100.00
24031;BME280;12240;51.142;22.486;2023-08-08T07:03:37;99029.38;;;16.72;100.00
24031;BME280;12240;51.142;22.486;2023-08-08T07:06:06;99007.03;;;16.65;100.00
24031;BME280;12240;51.142;22.486;2023-08-08T07:08:35;99017.75;;;16.58;100.00
24031;BME280;12240;51.142;22.486;2023-08-08T07:11:03;99018.28;;;16.81;100.00
24031;BME280;12240;51.142;22.486;2023-08-08T07:13:31;99001.97;;;16.89;100.00
24031;BME280;12240;51.142;22.486;2023-08-08T07:16:00;99017.31;;;16.95;100.00
24031;BME280;12240;51.142;22.486;2023-08-08T07:18:29;99018.50;;;17.47;100.00
24031;BME280;12240;51.142;22.486;2023-08-08T07:20:57;99012.38;;;17.12;100.00
24031;BME280;12240;51.142;22.486;2023-08-08T07:23:26;99013.38;;;16.98;100.00
24031;BME280;12240;51.142;22.486;2023-08-08T07:25:54;99009.47;;;17.00;100.00
24031;BME280;12240;51.142;22.486;2023-08-08T07:28:23;99011.94;;;17.02;100.00
24031;BME280;12240;51.142;22.486;2023-08-08T07:30:51;99010.16;;;16.68;100.00
24031;BME280;12240;51.142;22.486;2023-08-08T07:33:19;99022.13;;;17.13;100.00
24031;BME280;12240;51.142;22.486;2023-08-08T07:35:47;99000.72;;;17.78;100.00
24031;BME280;12240;51.142;22.486;2023-08-08T07:38:16;98985.97;;;17.41;100.00
24031;BME280;12240;51.142;22.486;2023-08-08T07:40:44;98995.66;;;17.29;100.00
24031;BME280;12240;51.142;22.486;2023-08-08T07:43:16;98985.38;;;17.92;100.00
24031;BME280;12240;51.142;22.486;2023-08-08T07:45:44;98977.44;;;18.42;100.00
24031;BME280;12240;51.142;22.486;2023-08-08T07:48:13;98971.59;;;18.39;100.00
24031;BME280;12240;51.142;22.486;2023-08-08T07:50:41;98977.69;;;17.89;100.00
24031;BME280;12240;51.142;22.486;2023-08-08T07:53:09;98982.50;;;17.61;100.00
24031;BME280;12240;51.142;22.486;2023-08-08T07:55:38;98996.97;;;17.92;100.00
24031;BME280;12240;51.142;22.486;2023-08-08T07:58:06;98985.56;;;18.23;100.00
24031;BME280;12240;51.142;22.486;2023-08-08T08:00:34;98967.47;;;18.30;100.00
24031;BME280;12240;51.142;22.486;2023-08-08T08:03:03;98979.81;;;19.14;100.00
24031;BME280;12240;51.142;22.486;2023-08-08T08:05:32;98957.59;;;19.19;100.00
24031;BME280;12240;51.142;22.486;2023-08-08T08:08:03;98970.25;;;18.81;100.00
24031;BME280;12240;51.142;22.486;2023-08-08T08:10:31;98965.00;;;18.35;100.00
24031;BME280;12240;51.142;22.486;2023-08-08T08:13:00;98957.41;;;17.93;100.00
24031;BME280;12240;51.142;22.486;2023-08-08T08:15:28;98989.31;;;17.83;100.00
24031;BME280;12240;51.142;22.486;2023-08-08T08:17:56;99013.97;;;17.93;100.00
24031;BME280;12240;51.142;22.486;2023-08-08T08:20:25;99012.91;;;17.48;100.00
24031;BME280;12240;51.142;22.486;2023-08-08T08:22:53;98996.50;;;17.43;100.00
24031;BME280;12240;51.142;22.486;2023-08-08T08:25:21;99024.28;;;17.43;100.00
24031;BME280;12240;51.142;22.486;2023-08-08T08:27:49;99036.97;;;18.28;100.00
24031;BME280;12240;51.142;22.486;2023-08-08T08:30:18;99010.41;;;18.44;100.00
24031;BME280;12240;51.142;22.486;2023-08-08T08:32:47;98992.78;;;18.29;100.00
24031;BME280;12240;51.142;22.486;2023-08-08T08:35:15;98996.56;;;18.02;100.00
24031;BME280;12240;51.142;22.486;2023-08-08T08:37:44;99030.53;;;18.03;100.00
24031;BME280;12240;51.142;22.486;2023-08-08T08:40:14;99023.69;;;18.20;100.00
24031;BME280;12240;51.142;22.486;2023-08-08T08:42:43;99034.97;;;19.25;100.00
24031;BME280;12240;51.142;22.486;2023-08-08T08:45:13;99021.78;;;20.04;100.00
24031;BME280;12240;51.142;22.486;2023-08-08T08:47:44;99015.41;;;19.73;100.00
24031;BME280;12240;51.142;22.486;2023-08-08T08:50:18;99025.28;;;19.11;100.00
24031;BME280;12240;51.142;22.486;2023-08-08T08:52:47;99013.50;;;18.54;100.00
24031;BME280;12240;51.142;22.486;2023-08-08T08:55:16;99010.84;;;18.92;100.00
24031;BME280;12240;51.142;22.486;2023-08-08T08:57:45;99013.59;;;19.36;100.00
24031;BME280;12240;51.142;22.486;2023-08-08T09:00:14;98985.94;;;18.97;100.00
24031;BME280;12240;51.142;22.486;2023-08-08T09:02:44;98989.31;;;18.86;100.00
24031;BME280;12240;51.142;22.486;2023-08-08T09:05:13;99102.75;;;19.61;100.00
24031;BME280;12240;51.142;22.486;2023-08-08T09:07:43;99056.78;;;19.67;100.00
24031;BME280;12240;51.142;22.486;2023-08-08T09:10:15;99216.91;;;19.30;100.00
24031;BME280;12240;51.142;22.486;2023-08-08T09:12:44;99207.63;;;19.70;100.00
24031;BME280;12240;51.142;22.486;2023-08-08T09:15:14;99121.75;;;20.17;100.00
24031;BME280;12240;51.142;22.486;2023-08-08T09:17:44;99120.91;;;20.41;100.00
24031;BME280;12240;51.142;22.486;2023-08-08T09:20:17;99111.09;;;20.22;99.18
24031;BME280;12240;51.142;22.486;2023-08-08T09:22:45;99123.31;;;20.73;99.58
24031;BME280;12240;51.142;22.486;2023-08-08T09:25:14;99098.91;;;20.37;95.87
24031;BME280;12240;51.142;22.486;2023-08-08T09:27:43;99097.78;;;20.20;95.84
24031;BME280;12240;51.142;22.486;2023-08-08T09:30:12;99082.94;;;19.36;93.76
24031;BME280;12240;51.142;22.486;2023-08-08T09:32:43;99109.03;;;19.55;93.37
24031;BME280;12240;51.142;22.486;2023-08-08T09:35:13;99113.34;;;19.94;93.90
24031;BME280;12240;51.142;22.486;2023-08-08T09:37:42;99098.97;;;20.00;93.36
24031;BME280;12240;51.142;22.486;2023-08-08T09:40:11;99110.97;;;19.41;93.92
24031;BME280;12240;51.142;22.486;2023-08-08T09:42:40;99120.19;;;19.65;93.91
24031;BME280;12240;51.142;22.486;2023-08-08T09:45:10;99095.50;;;19.04;92.56
24031;BME280;12240;51.142;22.486;2023-08-08T09:47:39;99118.19;;;18.77;93.33
24031;BME280;12240;51.142;22.486;2023-08-08T09:50:08;99120.09;;;18.64;95.63
24031;BME280;12240;51.142;22.486;2023-08-08T09:52:37;99140.78;;;18.89;96.43
24031;BME280;12240;51.142;22.486;2023-08-08T09:55:09;99133.69;;;19.01;96.98
24031;BME280;12240;51.142;22.486;2023-08-08T09:57:40;99132.94;;;18.81;96.37
24031;BME280;12240;51.142;22.486;2023-08-08T10:00:09;99126.94;;;18.73;95.16
24031;BME280;12240;51.142;22.486;2023-08-08T10:02:45;99128.81;;;18.59;93.84
24031;BME280;12240;51.142;22.486;2023-08-08T10:05:15;99127.59;;;18.48;95.18
24031;BME280;12240;51.142;22.486;2023-08-08T10:07:44;99133.34;;;18.39;94.38
24031;BME280;12240;51.142;22.486;2023-08-08T10:10:15;99123.97;;;18.87;91.77
24031;BME280;12240;51.142;22.486;2023-08-08T10:12:44;99113.16;;;18.94;92.03
24031;BME280;12240;51.142;22.486;2023-08-08T10:15:12;99095.19;;;18.62;88.89
24031;BME280;12240;51.142;22.486;2023-08-08T10:17:42;99105.34;;;18.27;90.49
24031;BME280;12240;51.142;22.486;2023-08-08T10:20:11;99147.44;;;18.80;93.55
24031;BME280;12240;51.142;22.486;2023-08-08T10:22:45;99137.66;;;19.56;92.08
24031;BME280;12240;51.142;22.486;2023-08-08T10:25:33;99109.97;;;19.16;88.37
24031;BME280;12240;51.142;22.486;2023-08-08T10:28:14;99114.06;;;19.45;89.47
24031;BME280;12240;51.142;22.486;2023-08-08T10:30:58;99124.09;;;19.18;89.97
24031;BME280;12240;51.142;22.486;2023-08-08T10:33:39;99128.25;;;20.03;88.93
24031;BME280;12240;51.142;22.486;2023-08-08T10:36:08;99131.56;;;21.03;88.56
24031;BME280;12240;51.142;22.486;2023-08-08T10:41:14;99064.84;;;20.30;80.29
24031;BME280;12240;51.142;22.486;2023-08-08T10:43:53;99103.88;;;20.09;82.68
24031;BME280;12240;51.142;22.486;2023-08-08T10:46:31;99112.13;;;19.90;83.60
24031;BME280;12240;51.142;22.486;2023-08-08T10:49:02;99094.75;;;20.35;82.49
24031;BME280;12240;51.142;22.486;2023-08-08T10:51:46;99111.34;;;20.81;82.39
24031;BME280;12240;51.142;22.486;2023-08-08T10:54:25;99106.72;;;21.24;81.21
24031;BME280;12240;51.142;22.486;2023-08-08T10:56:59;99096.53;;;21.08;78.90
24031;BME280;12240;51.142;22.486;2023-08-08T10:59:37;99080.19;;;21.15;78.04
24031;BME280;12240;51.142;22.486;2023-08-08T11:02:06;99096.34;;;21.69;77.81
24031;BME280;12240;51.142;22.486;2023-08-08T11:04:35;99099.63;;;21.59;77.51
24031;BME280;12240;51.142;22.486;2023-08-08T11:07:04;99091.25;;;21.79;78.03
24031;BME280;12240;51.142;22.486;2023-08-08T11:09:33;99092.25;;;22.08;76.94
24031;BME280;12240;51.142;22.486;2023-08-08T11:12:03;99079.41;;;21.44;75.54
24031;BME280;12240;51.142;22.486;2023-08-08T11:14:33;99075.25;;;20.51;76.29
24031;BME280;12240;51.142;22.486;2023-08-08T11:17:01;99092.78;;;20.24;77.55
24031;BME280;12240;51.142;22.486;2023-08-08T11:19:29;99104.94;;;20.08;78.24
24031;BME280;12240;51.142;22.486;2023-08-08T11:21:59;99121.75;;;20.10;79.39
24031;BME280;12240;51.142;22.486;2023-08-08T11:24:35;99116.19;;;20.79;79.32
24031;BME280;12240;51.142;22.486;2023-08-08T11:27:04;99122.84;;;21.01;78.07
24031;BME280;12240;51.142;22.486;2023-08-08T11:29:33;99107.88;;;21.17;77.68
24031;BME280;12240;51.142;22.486;2023-08-08T11:32:01;99093.06;;;21.01;76.26
24031;BME280;12240;51.142;22.486;2023-08-08T11:34:35;99057.69;;;20.78;73.80
24031;BME280;12240;51.142;22.486;2023-08-08T11:37:04;99090.59;;;21.47;74.82
24031;BME280;12240;51.142;22.486;2023-08-08T11:39:33;99100.97;;;20.78;75.50
24031;BME280;12240;51.142;22.486;2023-08-08T11:42:01;99115.44;;;20.23;76.68
24031;BME280;12240;51.142;22.486;2023-08-08T11:44:31;99146.09;;;20.10;78.24
24031;BME280;12240;51.142;22.486;2023-08-08T11:47:02;99156.06;;;20.10;80.23
24031;BME280;12240;51.142;22.486;2023-08-08T11:49:43;99118.31;;;20.28;78.60
24031;BME280;12240;51.142;22.486;2023-08-08T11:52:12;99166.22;;;21.13;80.45
24031;BME280;12240;51.142;22.486;2023-08-08T11:54:41;99132.03;;;21.18;79.48
24031;BME280;12240;51.142;22.486;2023-08-08T11:57:11;99123.53;;;21.62;77.90
24031;BME280;12240;51.142;22.486;2023-08-08T11:59:39;99116.63;;;21.48;76.70
24031;BME280;12240;51.142;22.486;2023-08-08T12:02:08;99122.38;;;21.88;76.44
24031;BME280;12240;51.142;22.486;2023-08-08T12:04:37;99107.91;;;21.76;75.37
24031;BME280;12240;51.142;22.486;2023-08-08T12:07:05;99108.06;;;22.11;74.95
24031;BME280;12240;51.142;22.486;2023-08-08T12:09:36;99086.31;;;21.87;71.42
24031;BME280;12240;51.142;22.486;2023-08-08T12:12:05;99074.19;;;21.90;70.66
24031;BME280;12240;51.142;22.486;2023-08-08T12:14:42;99105.63;;;22.44;72.37
24031;BME280;12240;51.142;22.486;2023-08-08T12:17:30;99085.31;;;21.52;70.17
24031;BME280;12240;51.142;22.486;2023-08-08T12:20:00;99101.72;;;21.57;71.71
24031;BME280;12240;51.142;22.486;2023-08-08T12:22:28;99119.25;;;22.14;73.07
24031;BME280;12240;51.142;22.486;2023-08-08T12:24:59;99110.47;;;22.42;71.65
24031;BME280;12240;51.142;22.486;2023-08-08T12:27:28;99102.00;;;22.96;70.28
24031;BME280;12240;51.142;22.486;2023-08-08T12:29:57;99072.13;;;22.84;68.11
24031;BME280;12240;51.142;22.486;2023-08-08T12:32:27;99076.25;;;22.29;68.32
24031;BME280;12240;51.142;22.486;2023-08-08T12:34:56;99070.84;;;22.75;68.17
24031;BME280;12240;51.142;22.486;2023-08-08T12:37:25;99071.56;;;22.48;67.83
24031;BME280;12240;51.142;22.486;2023-08-08T12:39:53;99073.78;;;22.97;67.40
24031;BME280;12240;51.142;22.486;2023-08-08T12:42:22;99058.56;;;22.27;66.25
24031;BME280;12240;51.142;22.486;2023-08-08T12:44:54;99075.63;;;22.16;67.04
24031;BME280;12240;51.142;22.486;2023-08-08T12:47:22;99071.16;;;22.21;65.22
24031;BME280;12240;51.142;22.486;2023-08-08T12:49:50;99082.78;;;22.74;65.92
24031;BME280;12240;51.142;22.486;2023-08-08T12:52:19;99100.09;;;23.08;67.37
24031;BME280;12240;51.142;22.486;2023-08-08T12:54:47;99070.91;;;23.03;65.30
24031;BME280;12240;51.142;22.486;2023-08-08T12:57:16;99087.94;;;23.78;64.46
24031;BME280;12240;51.142;22.486;2023-08-08T12:59:44;99091.97;;;23.76;64.40
24031;BME280;12240;51.142;22.486;2023-08-08T13:02:13;99078.19;;;23.26;64.11
24031;BME280;12240;51.142;22.486;2023-08-08T13:04:41;99082.13;;;23.30;64.17
24031;BME280;12240;51.142;22.486;2023-08-08T13:07:09;99099.38;;;23.80;65.23
24031;BME280;12240;51.142;22.486;2023-08-08T13:09:38;99065.19;;;22.77;63.56